createdAt,value
2018-03-25T00:01:46.594Z,48.63
2018-03-25T00:04:14.190Z,53.80
2018-03-25T00:06:41.789Z,54.90
2018-03-25T00:09:11.162Z,49.67
2018-03-25T00:11:38.757Z,48.20
2018-03-25T00:14:06.614Z,46.33
2018-03-25T00:16:34.200Z,45.10
2018-03-25T00:19:01.774Z,55.17
2018-03-25T00:21:30.256Z,50.27
2018-03-25T00:23:57.820Z,48.37
2018-03-25T00:26:26.242Z,49.63
2018-03-25T00:28:56.102Z,45.10
2018-03-25T00:31:23.657Z,45.60
2018-03-25T00:33:52.249Z,46.57
2018-03-25T00:36:20.723Z,48.40
2018-03-25T00:38:49.098Z,50.83
2018-03-25T00:41:16.688Z,42.70
2018-03-25T00:43:44.271Z,45.83
2018-03-25T00:46:11.833Z,47.50
2018-03-25T00:48:39.384Z,46.20
2018-03-25T00:51:06.982Z,54.47
2018-03-25T00:53:35.308Z,49.83
2018-03-25T00:56:02.870Z,44.10
2018-03-25T00:58:31.225Z,50.60
2018-03-25T01:00:58.757Z,46.13
2018-03-25T01:03:27.559Z,51.23
2018-03-25T01:05:55.477Z,48.20
2018-03-25T01:08:23.071Z,51.30
2018-03-25T01:10:50.623Z,52.70
2018-03-25T01:13:18.948Z,58.27
2018-03-25T01:15:59.014Z,53.90
2018-03-25T01:18:26.578Z,46.37
2018-03-25T01:20:54.142Z,50.03
2018-03-25T01:23:21.680Z,53.67
2018-03-25T01:25:49.588Z,45.80
2018-03-25T01:28:17.828Z,41.40
2018-03-25T01:30:46.165Z,46.03
2018-03-25T01:33:13.856Z,47.17
2018-03-25T01:35:41.397Z,45.03
2018-03-25T01:38:09.697Z,45.55
2018-03-25T01:40:37.283Z,47.00
2018-03-25T01:43:05.605Z,44.67
2018-03-25T01:45:33.944Z,47.27
2018-03-25T01:48:01.850Z,57.60
2018-03-25T01:50:29.417Z,47.83
2018-03-25T01:52:57.021Z,42.50
2018-03-25T01:55:25.707Z,47.63
2018-03-25T01:57:53.253Z,48.30
2018-03-25T02:00:21.602Z,52.40
2018-03-25T02:05:43.312Z,49.40
2018-03-25T02:08:10.979Z,49.72
2018-03-25T02:10:38.576Z,49.05
2018-03-25T02:13:07.140Z,47.37
2018-03-25T02:15:34.743Z,44.15
2018-03-25T02:18:02.333Z,46.75
2018-03-25T02:20:29.898Z,50.05
2018-03-25T02:22:58.518Z,46.05
2018-03-25T02:25:26.881Z,49.83
2018-03-25T02:27:54.463Z,44.07
2018-03-25T02:30:23.382Z,44.65
2018-03-25T02:32:51.761Z,52.13
2018-03-25T02:35:20.538Z,54.33
2018-03-25T02:37:48.495Z,44.10
2018-03-25T02:40:16.048Z,44.13
2018-03-25T02:42:43.595Z,49.00
2018-03-25T02:45:11.203Z,45.53
2018-03-25T02:47:39.030Z,44.67
2018-03-25T02:50:07.351Z,50.70
2018-03-25T02:52:34.971Z,48.47
2018-03-25T02:55:02.521Z,46.17
2018-03-25T02:57:30.112Z,45.83
2018-03-25T02:59:57.731Z,44.03
2018-03-25T03:02:25.312Z,44.15
2018-03-25T03:04:53.984Z,44.33
2018-03-25T03:07:21.580Z,53.00
2018-03-25T03:09:49.587Z,44.30
2018-03-25T03:12:17.833Z,40.83
2018-03-25T03:14:45.414Z,45.88
2018-03-25T03:17:12.997Z,48.60
2018-03-25T03:19:41.745Z,47.22
2018-03-25T03:22:09.307Z,43.70
2018-03-25T03:24:37.647Z,41.40
2018-03-25T03:27:05.300Z,42.43
2018-03-25T03:29:32.884Z,43.33
2018-03-25T03:32:00.431Z,43.20
2018-03-25T03:34:28.138Z,44.25
2018-03-25T03:36:55.696Z,44.95
2018-03-25T03:39:24.019Z,39.87
2018-03-25T03:41:51.731Z,37.80
2018-03-25T03:44:19.746Z,42.05
2018-03-25T03:46:48.406Z,40.50
2018-03-25T03:49:18.336Z,45.25
2018-03-25T03:51:45.876Z,47.20
2018-03-25T03:54:13.423Z,41.13
2018-03-25T03:56:41.015Z,52.35
2018-03-25T03:59:08.575Z,48.33
2018-03-25T04:01:36.227Z,41.72
2018-03-25T04:04:03.958Z,39.90
2018-03-25T04:06:31.551Z,43.90
2018-03-25T04:08:59.092Z,43.05
2018-03-25T04:11:26.674Z,49.05
2018-03-25T04:13:54.224Z,39.70
2018-03-25T04:16:21.808Z,37.17
2018-03-25T04:18:49.775Z,41.25
2018-03-25T04:21:18.133Z,35.75
2018-03-25T04:23:45.768Z,42.90
2018-03-25T04:26:14.324Z,39.65
2018-03-25T04:28:41.972Z,38.78
2018-03-25T04:31:09.524Z,43.58
2018-03-25T04:33:37.111Z,42.17
2018-03-25T04:36:04.685Z,40.25
2018-03-25T04:38:32.267Z,34.15
2018-03-25T04:40:59.823Z,42.42
2018-03-25T04:43:27.384Z,37.40
2018-03-25T04:45:54.979Z,42.97
2018-03-25T04:48:22.585Z,36.78
2018-03-25T04:50:50.976Z,39.17
2018-03-25T04:53:19.479Z,38.70
2018-03-25T04:55:47.470Z,42.00
2018-03-25T04:58:15.017Z,38.85
2018-03-25T05:00:42.582Z,44.28
2018-03-25T05:03:10.175Z,39.28
2018-03-25T05:05:38.506Z,39.55
2018-03-25T05:08:06.086Z,50.58
2018-03-25T05:10:35.460Z,45.28
2018-03-25T05:13:03.188Z,36.60
2018-03-25T05:15:30.782Z,36.13
2018-03-25T05:17:58.335Z,38.33
2018-03-25T05:20:25.957Z,42.08
2018-03-25T05:22:53.544Z,38.30
2018-03-25T05:25:21.143Z,37.53
2018-03-25T05:27:49.459Z,33.05
2018-03-25T05:30:18.109Z,39.45
2018-03-25T05:32:45.674Z,32.97
2018-03-25T05:35:13.256Z,38.33
2018-03-25T05:37:40.834Z,38.07
2018-03-25T05:40:08.411Z,34.42
2018-03-25T05:42:36.887Z,32.22
2018-03-25T05:45:04.437Z,37.10
2018-03-25T05:47:32.015Z,34.60
2018-03-25T05:49:59.572Z,32.63
2018-03-25T05:52:27.161Z,28.40
2018-03-25T05:54:54.724Z,28.70
2018-03-25T05:57:23.067Z,28.47
2018-03-25T05:59:50.730Z,21.43
2018-03-25T06:02:19.340Z,31.17
2018-03-25T06:04:48.885Z,24.67
2018-03-25T06:07:19.088Z,26.97
2018-03-25T06:09:46.685Z,24.17
2018-03-25T06:12:15.171Z,24.50
2018-03-25T06:14:43.543Z,21.70
2018-03-25T06:17:12.026Z,18.87
2018-03-25T06:19:39.679Z,17.70
2018-03-25T06:22:07.271Z,19.83
2018-03-25T06:24:36.856Z,19.60
2018-03-25T06:27:04.419Z,23.77
2018-03-25T06:29:32.015Z,22.00
2018-03-25T06:31:59.674Z,17.60
2018-03-25T06:34:27.279Z,23.60
2018-03-25T06:36:54.844Z,22.37
2018-03-25T06:39:22.427Z,17.73
2018-03-25T06:41:50.778Z,20.57
2018-03-25T06:44:19.727Z,25.97
2018-03-25T06:46:47.889Z,22.70
2018-03-25T06:49:15.478Z,25.20
2018-03-25T06:51:43.785Z,28.20
2018-03-25T06:54:11.426Z,35.70
2018-03-25T06:56:38.959Z,24.83
2018-03-25T06:59:07.061Z,17.20
2018-03-25T07:01:34.654Z,19.03
2018-03-25T07:04:05.088Z,20.47
2018-03-25T07:06:33.501Z,23.70
2018-03-25T07:09:01.660Z,22.00
2018-03-25T07:11:29.300Z,23.73
2018-03-25T07:13:57.629Z,22.77
2018-03-25T07:16:25.262Z,22.97
2018-03-25T07:18:53.578Z,28.37
2018-03-25T07:21:21.118Z,30.50
2018-03-25T07:23:49.625Z,15.37
2018-03-25T07:26:17.910Z,29.47
2018-03-25T07:28:48.144Z,17.10
2018-03-25T07:31:16.517Z,20.13
2018-03-25T07:33:44.119Z,20.07
2018-03-25T07:36:12.497Z,21.87
2018-03-25T07:38:40.866Z,23.30
2018-03-25T07:41:08.409Z,25.87
2018-03-25T07:43:37.244Z,38.20
2018-03-25T07:46:04.795Z,19.20
2018-03-25T07:48:33.116Z,19.07
2018-03-25T07:51:01.628Z,29.50
2018-03-25T07:53:29.245Z,17.90
2018-03-25T07:55:56.885Z,17.70
2018-03-25T07:58:25.363Z,27.50
2018-03-25T08:00:52.955Z,16.50
2018-03-25T08:03:20.510Z,39.50
2018-03-25T08:05:48.572Z,20.70
2018-03-25T08:08:16.460Z,24.47
2018-03-25T08:10:44.107Z,20.00
2018-03-25T08:13:11.732Z,23.07
2018-03-25T08:15:39.330Z,21.70
2018-03-25T08:18:07.650Z,20.53
2018-03-25T08:20:35.958Z,21.03
2018-03-25T08:23:03.547Z,16.60
2018-03-25T08:25:32.830Z,19.30
2018-03-25T08:28:00.501Z,22.03
2018-03-25T08:30:28.820Z,16.77
2018-03-25T08:32:57.195Z,25.27
2018-03-25T08:35:24.810Z,23.37
2018-03-25T08:37:53.127Z,21.17
2018-03-25T08:40:20.811Z,23.53
2018-03-25T08:42:48.437Z,21.47
2018-03-25T08:45:16.780Z,19.60
2018-03-25T08:47:45.132Z,23.80
2018-03-25T08:50:13.111Z,19.17
2018-03-25T08:52:40.712Z,22.00
2018-03-25T08:55:09.030Z,18.27
2018-03-25T08:57:36.595Z,21.90
2018-03-25T09:00:04.644Z,23.20
2018-03-25T09:02:32.216Z,24.03
2018-03-25T09:04:59.742Z,25.33
2018-03-25T09:07:28.085Z,22.70
2018-03-25T09:09:55.626Z,29.23
2018-03-25T09:12:23.248Z,27.63
2018-03-25T09:14:50.795Z,29.60
2018-03-25T09:17:19.137Z,27.47
2018-03-25T09:19:46.687Z,27.23
2018-03-25T09:22:14.227Z,22.47
2018-03-25T09:24:41.808Z,24.40
2018-03-25T09:27:09.344Z,27.87
2018-03-25T09:29:36.930Z,23.40
2018-03-25T09:32:04.475Z,25.67
2018-03-25T09:34:32.873Z,23.90
2018-03-25T09:37:00.423Z,22.33
2018-03-25T09:39:27.984Z,26.40
2018-03-25T09:41:55.519Z,25.17
2018-03-25T09:44:24.212Z,27.13
2018-03-25T09:46:52.538Z,25.57
2018-03-25T09:49:20.851Z,25.43
2018-03-25T09:51:48.429Z,27.30
2018-03-25T09:54:15.983Z,27.80
2018-03-25T09:56:43.552Z,24.20
2018-03-25T09:59:11.083Z,29.90
2018-03-25T10:01:44.292Z,32.63
2018-03-25T10:04:11.826Z,26.33
2018-03-25T10:06:39.394Z,28.70
2018-03-25T10:09:06.964Z,26.00
2018-03-25T10:11:35.285Z,27.00
2018-03-25T10:14:03.645Z,27.27
2018-03-25T10:16:31.963Z,24.17
2018-03-25T10:18:59.587Z,30.10
2018-03-25T10:21:27.100Z,26.60
2018-03-25T10:23:54.673Z,23.40
2018-03-25T10:26:23.838Z,27.93
2018-03-25T10:28:51.427Z,22.13
2018-03-25T10:31:19.018Z,25.87
2018-03-25T10:33:47.412Z,26.23
2018-03-25T10:36:14.979Z,25.97
2018-03-25T10:38:42.540Z,24.40
2018-03-25T10:41:11.108Z,25.47
2018-03-25T10:43:38.803Z,24.37
2018-03-25T10:46:06.534Z,22.57
2018-03-25T10:48:36.169Z,23.93
2018-03-25T10:51:03.769Z,21.50
2018-03-25T10:53:31.385Z,23.03
2018-03-25T10:55:59.898Z,23.67
2018-03-25T10:58:27.491Z,23.90
2018-03-25T11:00:55.822Z,22.47
2018-03-25T11:03:24.166Z,20.70
2018-03-25T11:05:51.799Z,23.57
2018-03-25T11:08:20.130Z,23.53
2018-03-25T11:10:47.676Z,24.03
2018-03-25T11:13:15.227Z,21.77
2018-03-25T11:15:42.835Z,21.70
2018-03-25T11:18:10.400Z,24.30
2018-03-25T11:20:38.741Z,22.80
2018-03-25T11:23:06.298Z,25.20
2018-03-25T11:25:33.864Z,23.73
2018-03-25T11:28:02.382Z,16.50
2018-03-25T11:30:30.754Z,21.20
2018-03-25T11:32:59.075Z,19.83
2018-03-25T11:35:26.665Z,23.23
2018-03-25T11:37:54.300Z,23.53
2018-03-25T11:40:21.879Z,19.27
2018-03-25T11:42:49.971Z,16.97
2018-03-25T11:45:18.446Z,19.50
2018-03-25T11:47:46.385Z,17.97
2018-03-25T11:50:13.959Z,21.67
2018-03-25T11:52:41.544Z,21.60
2018-03-25T11:55:10.064Z,24.80
2018-03-25T11:57:37.614Z,26.13
2018-03-25T12:00:05.379Z,22.50
2018-03-25T12:02:33.054Z,21.53
2018-03-25T12:05:00.636Z,26.10
2018-03-25T12:07:28.202Z,24.90
2018-03-25T12:09:55.770Z,24.77
2018-03-25T12:12:24.396Z,24.43
2018-03-25T12:14:51.961Z,21.50
2018-03-25T12:17:19.556Z,23.83
2018-03-25T12:19:47.134Z,24.90
2018-03-25T12:22:14.747Z,21.80
2018-03-25T12:24:43.295Z,26.10
2018-03-25T12:27:12.625Z,22.90
2018-03-25T12:29:40.328Z,22.60
2018-03-25T12:32:07.879Z,22.27
2018-03-25T12:34:35.464Z,23.20
2018-03-25T12:37:03.791Z,23.43
2018-03-25T12:39:31.402Z,24.67
2018-03-25T12:41:59.715Z,22.27
2018-03-25T12:44:49.443Z,26.90
2018-03-25T12:47:17.323Z,23.20
2018-03-25T12:49:45.660Z,22.90
2018-03-25T12:52:13.261Z,20.87
2018-03-25T12:54:41.639Z,21.63
2018-03-25T12:57:09.215Z,23.43
2018-03-25T12:59:36.780Z,20.80
2018-03-25T13:02:05.330Z,22.37
2018-03-25T13:04:33.624Z,25.80
2018-03-25T13:07:01.211Z,22.60
2018-03-25T13:09:28.778Z,19.47
2018-03-25T13:11:57.262Z,26.57
2018-03-25T13:14:24.837Z,21.90
2018-03-25T13:16:53.924Z,19.60
2018-03-25T13:19:21.523Z,25.50
2018-03-25T13:21:49.864Z,23.03
2018-03-25T13:24:17.454Z,23.77
2018-03-25T13:26:46.761Z,22.47
2018-03-25T13:29:15.084Z,20.67
2018-03-25T13:31:42.686Z,21.90
2018-03-25T13:34:10.251Z,32.67
2018-03-25T13:36:38.564Z,20.23
2018-03-25T13:39:06.153Z,18.53
2018-03-25T13:41:33.724Z,17.40
2018-03-25T13:44:01.302Z,19.67
2018-03-25T13:46:29.614Z,21.73
2018-03-25T13:48:57.171Z,21.23
2018-03-25T13:51:24.737Z,19.60
2018-03-25T13:53:52.859Z,24.57
2018-03-25T13:56:22.129Z,20.20
2018-03-25T13:58:49.681Z,17.80
2018-03-25T14:01:17.333Z,20.37
2018-03-25T14:03:45.687Z,18.80
2018-03-25T14:06:13.297Z,26.70
2018-03-25T14:08:40.865Z,18.87
2018-03-25T14:11:09.279Z,18.27
2018-03-25T14:13:36.850Z,18.10
2018-03-25T14:16:04.431Z,21.50
2018-03-25T14:18:32.033Z,18.53
2018-03-25T14:21:00.349Z,20.73
2018-03-25T14:23:27.928Z,22.87
2018-03-25T14:25:55.510Z,20.57
2018-03-25T14:28:23.839Z,20.83
2018-03-25T14:30:51.545Z,19.40
2018-03-25T14:33:19.122Z,17.10
2018-03-25T14:35:49.426Z,19.77
2018-03-25T14:38:17.880Z,19.67
2018-03-25T14:40:45.451Z,23.33
2018-03-25T14:43:13.010Z,19.90
2018-03-25T14:45:42.154Z,22.90
2018-03-25T14:48:10.711Z,23.40
2018-03-25T14:50:39.120Z,21.67
2018-03-25T14:53:06.675Z,20.10
2018-03-25T14:55:35.292Z,23.20
2018-03-25T14:58:02.879Z,19.50
2018-03-25T15:00:33.566Z,22.13
2018-03-25T15:03:01.166Z,21.20
2018-03-25T15:05:33.802Z,22.23
2018-03-25T15:08:01.403Z,18.60
2018-03-25T15:10:29.846Z,28.77
2018-03-25T15:12:57.401Z,21.23
2018-03-25T15:15:24.980Z,21.97
2018-03-25T15:17:52.650Z,26.30
2018-03-25T15:20:23.204Z,26.83
2018-03-25T15:22:52.526Z,26.63
2018-03-25T15:25:20.081Z,25.23
2018-03-25T15:27:47.639Z,29.73
2018-03-25T15:30:15.187Z,25.20
2018-03-25T15:32:45.509Z,26.73
2018-03-25T15:35:15.862Z,23.00
2018-03-25T15:37:43.414Z,24.77
2018-03-25T15:40:12.058Z,22.93
2018-03-25T15:42:40.395Z,32.30
2018-03-25T15:45:07.983Z,27.23
2018-03-25T15:47:35.870Z,23.57
2018-03-25T15:50:03.739Z,24.03
2018-03-25T15:52:31.291Z,31.73
2018-03-25T15:54:59.669Z,26.67
2018-03-25T15:57:27.988Z,29.90
2018-03-25T15:59:55.767Z,26.10
2018-03-25T16:02:23.381Z,26.27
2018-03-25T16:04:50.941Z,25.40
2018-03-25T16:07:18.524Z,22.10
2018-03-25T16:09:46.105Z,27.70
2018-03-25T16:12:14.665Z,26.80
2018-03-25T16:14:42.351Z,30.23
2018-03-25T16:17:10.124Z,26.13
2018-03-25T16:19:42.017Z,27.47
2018-03-25T16:22:09.653Z,25.07
2018-03-25T16:24:38.001Z,26.33
2018-03-25T16:27:05.642Z,34.73
2018-03-25T16:29:33.295Z,27.00
2018-03-25T16:32:00.968Z,30.27
2018-03-25T16:34:28.530Z,25.40
2018-03-25T16:36:56.100Z,25.63
2018-03-25T16:39:24.678Z,31.00
2018-03-25T16:41:52.268Z,27.40
2018-03-25T16:44:20.757Z,30.00
2018-03-25T16:46:49.189Z,25.97
2018-03-25T16:49:16.817Z,33.80
2018-03-25T16:51:48.269Z,31.77
2018-03-25T16:54:15.871Z,29.97
2018-03-25T16:56:43.427Z,30.53
2018-03-25T16:59:11.011Z,31.47
2018-03-25T17:01:38.590Z,29.50
2018-03-25T17:04:06.223Z,32.20
2018-03-25T17:06:34.730Z,32.77
2018-03-25T17:09:02.678Z,34.47
2018-03-25T17:11:30.364Z,32.07
2018-03-25T17:13:58.720Z,41.90
2018-03-25T17:16:27.376Z,30.70
2018-03-25T17:18:54.929Z,35.03
2018-03-25T17:21:22.723Z,32.00
2018-03-25T17:23:50.360Z,38.30
2018-03-25T17:26:17.989Z,32.50
2018-03-25T17:28:47.110Z,33.40
2018-03-25T17:31:15.655Z,34.40
2018-03-25T17:33:44.157Z,31.80
2018-03-25T17:36:11.780Z,35.00
2018-03-25T17:38:39.367Z,35.40
2018-03-25T17:41:07.940Z,35.20
2018-03-25T17:43:35.531Z,39.00
2018-03-25T17:46:04.056Z,39.67
2018-03-25T17:48:31.996Z,39.57
2018-03-25T17:51:00.504Z,38.03
2018-03-25T17:53:28.191Z,33.90
2018-03-25T17:55:56.747Z,38.83
2018-03-25T17:58:26.074Z,34.03
2018-03-25T18:01:12.303Z,38.07
2018-03-25T18:03:41.244Z,35.47
2018-03-25T18:06:09.834Z,40.20
2018-03-25T18:08:38.385Z,35.80
2018-03-25T18:11:06.905Z,39.33
2018-03-25T18:13:34.581Z,33.40
2018-03-25T18:16:02.173Z,38.47
2018-03-25T18:18:29.747Z,40.47
2018-03-25T18:20:57.351Z,35.43
2018-03-25T18:23:24.939Z,40.70
2018-03-25T18:25:52.904Z,39.53
2018-03-25T18:28:21.435Z,37.50
2018-03-25T18:30:50.722Z,42.33
2018-03-25T18:33:19.167Z,40.67
2018-03-25T18:35:48.265Z,38.87
2018-03-25T18:38:15.879Z,41.37
2018-03-25T18:40:47.291Z,36.47
2018-03-25T18:43:15.695Z,31.90
2018-03-25T18:45:43.304Z,39.30
2018-03-25T18:48:11.842Z,38.83
2018-03-25T18:50:40.926Z,44.17
2018-03-25T18:53:10.251Z,38.07
2018-03-25T18:55:37.979Z,42.70
2018-03-25T18:58:06.014Z,34.93
2018-03-25T19:00:39.141Z,39.47
2018-03-25T19:03:08.200Z,45.13
2018-03-25T19:05:35.832Z,40.33
2018-03-25T19:08:03.425Z,42.43
2018-03-25T19:10:33.135Z,39.97
2018-03-25T19:13:00.706Z,42.27
2018-03-25T19:15:30.049Z,41.20
2018-03-25T19:17:57.598Z,44.83
2018-03-25T19:20:25.382Z,42.57
2018-03-25T19:22:53.911Z,38.30
2018-03-25T19:25:23.444Z,42.07
2018-03-25T19:27:51.076Z,41.17
2018-03-25T19:30:19.453Z,39.67
2018-03-25T19:32:47.986Z,40.40
2018-03-25T19:35:15.543Z,37.30
2018-03-25T19:37:43.137Z,41.47
2018-03-25T19:40:10.697Z,40.13
2018-03-25T19:42:39.220Z,38.40
2018-03-25T19:45:06.807Z,39.57
2018-03-25T19:47:34.380Z,46.43
2018-03-25T19:50:02.699Z,40.83
2018-03-25T19:52:32.016Z,39.43
2018-03-25T19:54:59.624Z,45.90
2018-03-25T19:57:27.207Z,44.57
2018-03-25T19:59:55.646Z,45.43
2018-03-25T20:02:23.256Z,41.07
2018-03-25T20:04:50.876Z,35.60
2018-03-25T20:07:18.478Z,40.30
2018-03-25T20:09:46.049Z,42.10
2018-03-25T20:12:13.669Z,44.47
2018-03-25T20:14:41.240Z,41.80
2018-03-25T20:17:09.566Z,45.20
2018-03-25T20:19:38.175Z,47.97
2018-03-25T20:22:06.691Z,56.10
2018-03-25T20:24:35.042Z,50.70
2018-03-25T20:27:02.591Z,46.43
2018-03-25T20:29:30.199Z,49.47
2018-03-25T20:31:57.822Z,49.50
2018-03-25T20:34:25.449Z,53.73
2018-03-25T20:36:53.051Z,55.67
2018-03-25T20:39:21.361Z,50.40
2018-03-25T20:41:48.930Z,58.67
2018-03-25T20:44:18.483Z,51.07
2018-03-25T20:46:47.892Z,50.30
2018-03-25T20:49:16.243Z,57.20
2018-03-25T20:51:44.187Z,50.20
2018-03-25T20:54:11.837Z,52.63
2018-03-25T20:56:39.397Z,52.60
2018-03-25T20:59:07.089Z,56.63
2018-03-25T21:01:34.739Z,51.50
2018-03-25T21:04:03.247Z,52.23
2018-03-25T21:06:30.830Z,48.23
2018-03-25T21:08:58.526Z,49.23
2018-03-25T21:11:26.095Z,54.87
2018-03-25T21:13:53.687Z,46.47
2018-03-25T21:16:22.090Z,59.53
2018-03-25T21:18:49.636Z,54.40
2018-03-25T21:21:18.020Z,55.47
2018-03-25T21:23:45.576Z,50.53
2018-03-25T21:26:15.198Z,50.20
2018-03-25T21:28:42.762Z,51.90
2018-03-25T21:31:10.391Z,49.27
2018-03-25T21:33:37.964Z,51.97
2018-03-25T21:36:05.522Z,51.40
2018-03-25T21:38:33.089Z,49.40
2018-03-25T21:41:01.619Z,49.33
2018-03-25T21:43:29.210Z,47.03
2018-03-25T21:45:57.519Z,47.60
2018-03-25T21:48:25.146Z,49.50
2018-03-25T21:50:53.445Z,49.40
2018-03-25T21:53:21.049Z,48.70
2018-03-25T21:55:48.646Z,51.43
2018-03-25T21:58:16.220Z,49.97
2018-03-25T22:00:43.808Z,48.17
2018-03-25T22:03:11.372Z,47.23
2018-03-25T22:05:38.984Z,53.63
2018-03-25T22:08:06.572Z,53.17
2018-03-25T22:10:34.210Z,56.87
2018-03-25T22:13:02.810Z,46.27
2018-03-25T22:15:30.364Z,50.37
2018-03-25T22:18:01.896Z,49.80
2018-03-25T22:20:29.492Z,48.43
2018-03-25T22:22:57.999Z,48.93
2018-03-25T22:25:25.550Z,47.63
2018-03-25T22:27:53.116Z,47.97
2018-03-25T22:30:20.693Z,46.93
2018-03-25T22:32:49.143Z,49.43
2018-03-25T22:35:16.803Z,45.43
2018-03-25T22:37:44.406Z,49.27
2018-03-25T22:40:13.251Z,46.17
2018-03-25T22:42:40.835Z,50.53
2018-03-25T22:45:08.384Z,44.50
2018-03-25T22:47:36.069Z,43.20
2018-03-25T22:50:04.373Z,45.33
2018-03-25T22:52:31.925Z,49.97
2018-03-25T22:54:59.813Z,49.50
2018-03-25T22:57:27.363Z,48.23
2018-03-25T22:59:54.899Z,43.50
2018-03-25T23:02:22.463Z,43.37
2018-03-25T23:04:50.034Z,48.03
2018-03-25T23:07:17.619Z,48.93
2018-03-25T23:09:45.178Z,46.37
2018-03-25T23:12:12.858Z,48.93
2018-03-25T23:14:40.435Z,54.47
2018-03-25T23:17:08.795Z,42.23
2018-03-25T23:19:36.348Z,44.37
2018-03-25T23:22:03.946Z,41.73
2018-03-25T23:24:31.486Z,47.77
2018-03-25T23:27:00.760Z,42.87
2018-03-25T23:29:28.474Z,53.17
2018-03-25T23:31:56.024Z,41.60
2018-03-25T23:34:24.554Z,36.70
2018-03-25T23:36:52.850Z,45.90
2018-03-25T23:39:21.161Z,45.47
2018-03-25T23:41:49.701Z,46.07
2018-03-25T23:44:17.298Z,35.37
2018-03-25T23:46:44.835Z,51.60
2018-03-25T23:49:13.147Z,46.10
2018-03-25T23:51:40.790Z,40.37
2018-03-25T23:54:08.326Z,53.10
2018-03-25T23:56:36.629Z,41.50
2018-03-25T23:59:04.228Z,41.20
